sensor_id;sensor_type;location;lat;lon;timestamp;temperature;humidity
64833;HTU21D;51290;45.060;38.948;2023-05-23T00:00:55;16.76;73.55
64833;HTU21D;51290;45.060;38.948;2023-05-23T00:03:22;16.75;73.77
64833;HTU21D;51290;45.060;38.948;2023-05-23T00:05:48;16.74;73.82
64833;HTU21D;51290;45.060;38.948;2023-05-23T00:08:15;16.72;74.03
64833;HTU21D;51290;45.060;38.948;2023-05-23T00:10:41;16.72;74.06
64833;HTU21D;51290;45.060;38.948;2023-05-23T00:13:07;16.73;74.13
64833;HTU21D;51290;45.060;38.948;2023-05-23T00:15:38;16.75;74.22
64833;HTU21D;51290;45.060;38.948;2023-05-23T00:18:06;16.74;74.33
64833;HTU21D;51290;45.060;38.948;2023-05-23T00:20:35;16.75;74.37
64833;HTU21D;51290;45.060;38.948;2023-05-23T00:23:01;16.75;74.47
64833;HTU21D;51290;45.060;38.948;2023-05-23T00:25:28;16.77;74.50
64833;HTU21D;51290;45.060;38.948;2023-05-23T00:27:59;16.78;74.44
64833;HTU21D;51290;45.060;38.948;2023-05-23T00:30:26;16.78;74.44
64833;HTU21D;51290;45.060;38.948;2023-05-23T00:32:52;16.78;74.57
64833;HTU21D;51290;45.060;38.948;2023-05-23T00:35:20;16.78;74.65
64833;HTU21D;51290;45.060;38.948;2023-05-23T00:37:46;16.79;74.71
64833;HTU21D;51290;45.060;38.948;2023-05-23T00:40:15;16.79;74.85
64833;HTU21D;51290;45.060;38.948;2023-05-23T00:42:41;16.77;75.08
64833;HTU21D;51290;45.060;38.948;2023-05-23T00:45:07;16.78;75.26
64833;HTU21D;51290;45.060;38.948;2023-05-23T00:47:33;16.78;75.31
64833;HTU21D;51290;45.060;38.948;2023-05-23T00:49:59;16.77;75.46
64833;HTU21D;51290;45.060;38.948;2023-05-23T00:52:26;16.77;75.47
64833;HTU21D;51290;45.060;38.948;2023-05-23T00:54:52;16.76;75.50
64833;HTU21D;51290;45.060;38.948;2023-05-23T00:57:18;16.73;75.57
64833;HTU21D;51290;45.060;38.948;2023-05-23T00:59:44;16.73;75.60
64833;HTU21D;51290;45.060;38.948;2023-05-23T01:02:11;16.70;75.70
64833;HTU21D;51290;45.060;38.948;2023-05-23T01:04:38;16.67;75.81
64833;HTU21D;51290;45.060;38.948;2023-05-23T01:07:04;16.66;75.78
64833;HTU21D;51290;45.060;38.948;2023-05-23T01:09:31;16.63;75.79
64833;HTU21D;51290;45.060;38.948;2023-05-23T01:15:15;16.56;75.60
64833;HTU21D;51290;45.060;38.948;2023-05-23T01:18:01;16.52;75.57
64833;HTU21D;51290;45.060;38.948;2023-05-23T01:23:22;16.49;75.82
64833;HTU21D;51290;45.060;38.948;2023-05-23T01:28:54;16.48;75.83
64833;HTU21D;51290;45.060;38.948;2023-05-23T01:31:23;16.48;75.83
64833;HTU21D;51290;45.060;38.948;2023-05-23T01:33:53;16.49;75.86
64833;HTU21D;51290;45.060;38.948;2023-05-23T01:36:20;16.51;75.95
64833;HTU21D;51290;45.060;38.948;2023-05-23T01:38:46;16.51;75.90
64833;HTU21D;51290;45.060;38.948;2023-05-23T01:41:12;16.55;75.89
64833;HTU21D;51290;45.060;38.948;2023-05-23T01:43:39;16.58;75.86
64833;HTU21D;51290;45.060;38.948;2023-05-23T01:46:06;16.59;75.83
64833;HTU21D;51290;45.060;38.948;2023-05-23T01:48:33;16.62;75.86
64833;HTU21D;51290;45.060;38.948;2023-05-23T01:51:00;16.64;75.92
64833;HTU21D;51290;45.060;38.948;2023-05-23T01:53:27;16.66;75.91
64833;HTU21D;51290;45.060;38.948;2023-05-23T01:55:54;16.67;75.88
64833;HTU21D;51290;45.060;38.948;2023-05-23T01:58:21;16.70;75.97
64833;HTU21D;51290;45.060;38.948;2023-05-23T02:00:47;16.71;76.03
64833;HTU21D;51290;45.060;38.948;2023-05-23T02:03:13;16.73;76.02
64833;HTU21D;51290;45.060;38.948;2023-05-23T02:05:39;16.72;76.01
64833;HTU21D;51290;45.060;38.948;2023-05-23T02:08:05;16.72;76.15
64833;HTU21D;51290;45.060;38.948;2023-05-23T02:10:32;16.72;76.28
64833;HTU21D;51290;45.060;38.948;2023-05-23T02:12:59;16.71;76.22
64833;HTU21D;51290;45.060;38.948;2023-05-23T02:15:26;16.72;76.18
64833;HTU21D;51290;45.060;38.948;2023-05-23T02:17:52;16.71;76.27
64833;HTU21D;51290;45.060;38.948;2023-05-23T02:20:18;16.71;76.22
64833;HTU21D;51290;45.060;38.948;2023-05-23T02:22:47;16.72;76.15
64833;HTU21D;51290;45.060;38.948;2023-05-23T02:25:13;16.72;76.29
64833;HTU21D;51290;45.060;38.948;2023-05-23T02:27:40;16.71;76.21
64833;HTU21D;51290;45.060;38.948;2023-05-23T02:30:06;16.72;76.32
64833;HTU21D;51290;45.060;38.948;2023-05-23T02:32:32;16.72;76.31
64833;HTU21D;51290;45.060;38.948;2023-05-23T02:34:59;16.73;76.32
64833;HTU21D;51290;45.060;38.948;2023-05-23T02:37:26;16.74;76.31
64833;HTU21D;51290;45.060;38.948;2023-05-23T02:39:52;16.75;76.32
64833;HTU21D;51290;45.060;38.948;2023-05-23T02:42:18;16.76;76.52
64833;HTU21D;51290;45.060;38.948;2023-05-23T02:44:44;16.76;76.46
64833;HTU21D;51290;45.060;38.948;2023-05-23T02:47:10;16.75;76.43
64833;HTU21D;51290;45.060;38.948;2023-05-23T02:49:36;16.75;76.40
64833;HTU21D;51290;45.060;38.948;2023-05-23T02:52:02;16.76;76.50
64833;HTU21D;51290;45.060;38.948;2023-05-23T02:54:28;16.75;76.50
64833;HTU21D;51290;45.060;38.948;2023-05-23T02:56:55;16.75;76.56
64833;HTU21D;51290;45.060;38.948;2023-05-23T02:59:21;16.77;76.72
64833;HTU21D;51290;45.060;38.948;2023-05-23T03:01:48;16.79;76.79
64833;HTU21D;51290;45.060;38.948;2023-05-23T03:04:14;16.81;76.83
64833;HTU21D;51290;45.060;38.948;2023-05-23T03:06:40;16.87;76.89
64833;HTU21D;51290;45.060;38.948;2023-05-23T03:09:09;16.92;76.85
64833;HTU21D;51290;45.060;38.948;2023-05-23T03:11:36;17.00;76.80
64833;HTU21D;51290;45.060;38.948;2023-05-23T03:14:02;17.09;76.67
64833;HTU21D;51290;45.060;38.948;2023-05-23T03:16:28;17.17;76.48
64833;HTU21D;51290;45.060;38.948;2023-05-23T03:18:54;17.24;76.33
64833;HTU21D;51290;45.060;38.948;2023-05-23T03:21:20;17.30;76.21
64833;HTU21D;51290;45.060;38.948;2023-05-23T03:23:46;17.36;76.10
64833;HTU21D;51290;45.060;38.948;2023-05-23T03:26:12;17.43;76.04
64833;HTU21D;51290;45.060;38.948;2023-05-23T03:28:38;17.48;76.01
64833;HTU21D;51290;45.060;38.948;2023-05-23T03:31:04;17.51;75.92
64833;HTU21D;51290;45.060;38.948;2023-05-23T03:33:30;17.53;75.87
64833;HTU21D;51290;45.060;38.948;2023-05-23T03:35:56;17.56;75.83
64833;HTU21D;51290;45.060;38.948;2023-05-23T03:38:22;17.59;75.83
64833;HTU21D;51290;45.060;38.948;2023-05-23T03:40:48;17.59;75.77
64833;HTU21D;51290;45.060;38.948;2023-05-23T03:43:14;17.63;75.73
64833;HTU21D;51290;45.060;38.948;2023-05-23T03:45:42;17.68;75.67
64833;HTU21D;51290;45.060;38.948;2023-05-23T03:48:12;17.72;75.54
64833;HTU21D;51290;45.060;38.948;2023-05-23T03:50:39;17.72;75.55
64833;HTU21D;51290;45.060;38.948;2023-05-23T03:53:06;17.72;75.50
64833;HTU21D;51290;45.060;38.948;2023-05-23T03:55:33;17.74;75.51
64833;HTU21D;51290;45.060;38.948;2023-05-23T03:58:00;17.79;75.41
64833;HTU21D;51290;45.060;38.948;2023-05-23T04:00:26;17.84;75.31
64833;HTU21D;51290;45.060;38.948;2023-05-23T04:02:52;17.89;75.21
64833;HTU21D;51290;45.060;38.948;2023-05-23T04:05:22;17.93;75.12
64833;HTU21D;51290;45.060;38.948;2023-05-23T04:07:49;17.97;75.03
64833;HTU21D;51290;45.060;38.948;2023-05-23T04:10:17;18.02;74.89
64833;HTU21D;51290;45.060;38.948;2023-05-23T04:12:44;18.07;74.88
64833;HTU21D;51290;45.060;38.948;2023-05-23T04:15:14;18.14;74.84
64833;HTU21D;51290;45.060;38.948;2023-05-23T04:17:53;18.29;74.76
64833;HTU21D;51290;45.060;38.948;2023-05-23T04:20:21;18.39;74.56
64833;HTU21D;51290;45.060;38.948;2023-05-23T04:22:48;18.44;74.35
64833;HTU21D;51290;45.060;38.948;2023-05-23T04:25:14;18.51;74.34
64833;HTU21D;51290;45.060;38.948;2023-05-23T04:27:48;18.56;74.18
64833;HTU21D;51290;45.060;38.948;2023-05-23T04:30:14;18.58;74.06
64833;HTU21D;51290;45.060;38.948;2023-05-23T04:32:43;18.61;73.97
64833;HTU21D;51290;45.060;38.948;2023-05-23T04:35:09;18.62;73.93
64833;HTU21D;51290;45.060;38.948;2023-05-23T04:37:39;18.64;73.94
64833;HTU21D;51290;45.060;38.948;2023-05-23T04:40:05;18.65;73.86
64833;HTU21D;51290;45.060;38.948;2023-05-23T04:42:55;18.58;73.70
64833;HTU21D;51290;45.060;38.948;2023-05-23T04:45:50;18.52;73.64
64833;HTU21D;51290;45.060;38.948;2023-05-23T04:48:32;18.40;73.75
64833;HTU21D;51290;45.060;38.948;2023-05-23T04:50:59;18.33;73.93
64833;HTU21D;51290;45.060;38.948;2023-05-23T04:53:27;18.30;74.07
64833;HTU21D;51290;45.060;38.948;2023-05-23T04:55:53;18.34;74.25
64833;HTU21D;51290;45.060;38.948;2023-05-23T04:58:19;18.47;74.47
64833;HTU21D;51290;45.060;38.948;2023-05-23T05:00:46;18.68;74.36
64833;HTU21D;51290;45.060;38.948;2023-05-23T05:03:14;18.92;74.13
64833;HTU21D;51290;45.060;38.948;2023-05-23T05:05:44;19.11;73.82
64833;HTU21D;51290;45.060;38.948;2023-05-23T05:08:10;19.20;73.35
64833;HTU21D;51290;45.060;38.948;2023-05-23T05:10:38;19.22;73.06
64833;HTU21D;51290;45.060;38.948;2023-05-23T05:13:05;19.23;73.07
64833;HTU21D;51290;45.060;38.948;2023-05-23T05:15:40;19.33;73.15
64833;HTU21D;51290;45.060;38.948;2023-05-23T05:18:07;19.44;72.96
64833;HTU21D;51290;45.060;38.948;2023-05-23T05:20:33;19.50;72.74
64833;HTU21D;51290;45.060;38.948;2023-05-23T05:23:00;19.53;72.65
64833;HTU21D;51290;45.060;38.948;2023-05-23T05:25:27;19.60;72.70
64833;HTU21D;51290;45.060;38.948;2023-05-23T05:27:59;19.72;72.53
64833;HTU21D;51290;45.060;38.948;2023-05-23T05:30:29;19.84;72.45
64833;HTU21D;51290;45.060;38.948;2023-05-23T05:32:59;19.96;72.13
64833;HTU21D;51290;45.060;38.948;2023-05-23T05:35:27;20.00;71.91
64833;HTU21D;51290;45.060;38.948;2023-05-23T05:37:53;19.99;71.80
64833;HTU21D;51290;45.060;38.948;2023-05-23T05:40:19;19.99;71.84
64833;HTU21D;51290;45.060;38.948;2023-05-23T05:42:45;20.02;71.83
64833;HTU21D;51290;45.060;38.948;2023-05-23T05:45:11;20.02;71.69
64833;HTU21D;51290;45.060;38.948;2023-05-23T05:47:39;20.01;71.72
64833;HTU21D;51290;45.060;38.948;2023-05-23T05:50:06;20.01;71.71
64833;HTU21D;51290;45.060;38.948;2023-05-23T05:52:34;20.00;71.67
64833;HTU21D;51290;45.060;38.948;2023-05-23T05:55:05;20.03;71.67
64833;HTU21D;51290;45.060;38.948;2023-05-23T05:57:32;20.06;71.69
64833;HTU21D;51290;45.060;38.948;2023-05-23T05:59:59;20.11;71.47
64833;HTU21D;51290;45.060;38.948;2023-05-23T06:02:26;20.02;71.36
64833;HTU21D;51290;45.060;38.948;2023-05-23T06:04:52;19.94;71.55
64833;HTU21D;51290;45.060;38.948;2023-05-23T06:07:18;19.91;71.79
64833;HTU21D;51290;45.060;38.948;2023-05-23T06:09:44;19.95;71.80
64833;HTU21D;51290;45.060;38.948;2023-05-23T06:12:11;20.02;71.71
64833;HTU21D;51290;45.060;38.948;2023-05-23T06:14:36;20.09;71.60
64833;HTU21D;51290;45.060;38.948;2023-05-23T06:17:02;20.11;71.43
64833;HTU21D;51290;45.060;38.948;2023-05-23T06:19:28;20.05;71.40
64833;HTU21D;51290;45.060;38.948;2023-05-23T06:21:55;19.96;71.28
64833;HTU21D;51290;45.060;38.948;2023-05-23T06:24:23;19.71;71.34
64833;HTU21D;51290;45.060;38.948;2023-05-23T06:26:48;19.42;71.57
64833;HTU21D;51290;45.060;38.948;2023-05-23T06:29:14;19.18;71.98
64833;HTU21D;51290;45.060;38.948;2023-05-23T06:31:40;19.02;72.38
64833;HTU21D;51290;45.060;38.948;2023-05-23T06:34:06;18.94;72.54
64833;HTU21D;51290;45.060;38.948;2023-05-23T06:36:32;18.87;72.66
64833;HTU21D;51290;45.060;38.948;2023-05-23T06:38:58;18.82;72.71
64833;HTU21D;51290;45.060;38.948;2023-05-23T06:41:24;18.81;72.87
64833;HTU21D;51290;45.060;38.948;2023-05-23T06:43:52;18.83;72.98
64833;HTU21D;51290;45.060;38.948;2023-05-23T06:46:23;18.94;73.03
64833;HTU21D;51290;45.060;38.948;2023-05-23T06:48:49;19.10;73.00
64833;HTU21D;51290;45.060;38.948;2023-05-23T06:51:16;19.29;72.93
64833;HTU21D;51290;45.060;38.948;2023-05-23T06:53:42;19.48;72.61
64833;HTU21D;51290;45.060;38.948;2023-05-23T06:56:08;19.57;72.33
64833;HTU21D;51290;45.060;38.948;2023-05-23T06:58:45;19.65;72.22
64833;HTU21D;51290;45.060;38.948;2023-05-23T07:01:12;19.73;72.29
64833;HTU21D;51290;45.060;38.948;2023-05-23T07:03:42;19.87;72.26
64833;HTU21D;51290;45.060;38.948;2023-05-23T07:06:11;20.05;72.24
64833;HTU21D;51290;45.060;38.948;2023-05-23T07:08:38;20.22;72.03
64833;HTU21D;51290;45.060;38.948;2023-05-23T07:11:05;20.39;71.86
64833;HTU21D;51290;45.060;38.948;2023-05-23T07:13:39;20.57;71.62
64833;HTU21D;51290;45.060;38.948;2023-05-23T07:16:06;20.71;71.16
64833;HTU21D;51290;45.060;38.948;2023-05-23T07:18:35;20.75;71.01
64833;HTU21D;51290;45.060;38.948;2023-05-23T07:21:01;20.77;70.97
64833;HTU21D;51290;45.060;38.948;2023-05-23T07:23:31;20.75;70.89
64833;HTU21D;51290;45.060;38.948;2023-05-23T07:25:57;20.73;70.76
64833;HTU21D;51290;45.060;38.948;2023-05-23T07:28:25;20.60;70.76
64833;HTU21D;51290;45.060;38.948;2023-05-23T07:30:53;20.48;71.02
64833;HTU21D;51290;45.060;38.948;2023-05-23T07:33:22;20.39;71.17
64833;HTU21D;51290;45.060;38.948;2023-05-23T07:35:48;20.30;71.34
64833;HTU21D;51290;45.060;38.948;2023-05-23T07:38:15;20.24;71.61
64833;HTU21D;51290;45.060;38.948;2023-05-23T07:40:41;20.25;71.89
64833;HTU21D;51290;45.060;38.948;2023-05-23T07:43:07;20.33;71.99
64833;HTU21D;51290;45.060;38.948;2023-05-23T07:45:33;20.44;71.98
64833;HTU21D;51290;45.060;38.948;2023-05-23T07:48:00;20.58;71.94
64833;HTU21D;51290;45.060;38.948;2023-05-23T07:50:29;20.72;71.80
64833;HTU21D;51290;45.060;38.948;2023-05-23T07:52:56;20.84;71.58
64833;HTU21D;51290;45.060;38.948;2023-05-23T07:55:27;20.96;71.38
64833;HTU21D;51290;45.060;38.948;2023-05-23T07:57:54;21.08;71.28
64833;HTU21D;51290;45.060;38.948;2023-05-23T08:00:22;21.23;71.19
64833;HTU21D;51290;45.060;38.948;2023-05-23T08:02:54;21.45;70.87
64833;HTU21D;51290;45.060;38.948;2023-05-23T08:05:26;21.70;70.62
64833;HTU21D;51290;45.060;38.948;2023-05-23T08:07:55;22.02;70.35
64833;HTU21D;51290;45.060;38.948;2023-05-23T08:10:21;22.31;69.84
64833;HTU21D;51290;45.060;38.948;2023-05-23T08:12:47;22.60;69.45
64833;HTU21D;51290;45.060;38.948;2023-05-23T08:15:16;22.90;68.90
64833;HTU21D;51290;45.060;38.948;2023-05-23T08:17:48;23.11;68.35
64833;HTU21D;51290;45.060;38.948;2023-05-23T08:20:15;23.27;68.04
64833;HTU21D;51290;45.060;38.948;2023-05-23T08:22:41;23.43;67.76
64833;HTU21D;51290;45.060;38.948;2023-05-23T08:25:09;23.67;67.58
64833;HTU21D;51290;45.060;38.948;2023-05-23T08:27:37;23.84;66.91
64833;HTU21D;51290;45.060;38.948;2023-05-23T08:30:12;23.90;66.62
64833;HTU21D;51290;45.060;38.948;2023-05-23T08:32:38;23.99;66.62
64833;HTU21D;51290;45.060;38.948;2023-05-23T08:35:04;24.05;66.40
64833;HTU21D;51290;45.060;38.948;2023-05-23T08:37:31;24.11;66.04
64833;HTU21D;51290;45.060;38.948;2023-05-23T08:39:57;24.05;65.88
64833;HTU21D;51290;45.060;38.948;2023-05-23T08:42:52;23.97;65.83
64833;HTU21D;51290;45.060;38.948;2023-05-23T08:45:20;23.90;65.91
64833;HTU21D;51290;45.060;38.948;2023-05-23T08:47:46;23.81;66.02
64833;HTU21D;51290;45.060;38.948;2023-05-23T08:50:16;23.75;66.04
64833;HTU21D;51290;45.060;38.948;2023-05-23T08:52:53;23.69;66.14
64833;HTU21D;51290;45.060;38.948;2023-05-23T08:55:23;23.69;66.32
64833;HTU21D;51290;45.060;38.948;2023-05-23T08:57:55;23.69;66.36
64833;HTU21D;51290;45.060;38.948;2023-05-23T09:00:34;23.71;66.16
64833;HTU21D;51290;45.060;38.948;2023-05-23T09:03:00;23.66;66.00
64833;HTU21D;51290;45.060;38.948;2023-05-23T09:05:41;23.62;65.79
64833;HTU21D;51290;45.060;38.948;2023-05-23T09:08:08;23.66;65.85
64833;HTU21D;51290;45.060;38.948;2023-05-23T09:10:34;23.77;65.53
64833;HTU21D;51290;45.060;38.948;2023-05-23T09:13:03;23.92;65.07
64833;HTU21D;51290;45.060;38.948;2023-05-23T09:15:29;24.03;64.85
64833;HTU21D;51290;45.060;38.948;2023-05-23T09:18:00;24.13;64.61
64833;HTU21D;51290;45.060;38.948;2023-05-23T09:20:30;24.19;64.36
64833;HTU21D;51290;45.060;38.948;2023-05-23T09:23:04;24.20;64.27
64833;HTU21D;51290;45.060;38.948;2023-05-23T09:25:31;24.23;64.22
64833;HTU21D;51290;45.060;38.948;2023-05-23T09:27:57;24.18;64.07
64833;HTU21D;51290;45.060;38.948;2023-05-23T09:30:26;24.19;64.22
64833;HTU21D;51290;45.060;38.948;2023-05-23T09:32:58;24.25;64.11
64833;HTU21D;51290;45.060;38.948;2023-05-23T09:35:27;24.30;63.90
64833;HTU21D;51290;45.060;38.948;2023-05-23T09:37:53;24.36;63.79
64833;HTU21D;51290;45.060;38.948;2023-05-23T09:40:21;24.41;63.63
64833;HTU21D;51290;45.060;38.948;2023-05-23T09:43:02;24.42;63.54
64833;HTU21D;51290;45.060;38.948;2023-05-23T09:45:30;24.36;63.47
64833;HTU21D;51290;45.060;38.948;2023-05-23T09:47:56;24.31;63.40
64833;HTU21D;51290;45.060;38.948;2023-05-23T09:50:23;24.24;63.33
64833;HTU21D;51290;45.060;38.948;2023-05-23T09:52:50;24.10;63.31
64833;HTU21D;51290;45.060;38.948;2023-05-23T09:55:18;23.96;63.40
64833;HTU21D;51290;45.060;38.948;2023-05-23T09:57:47;23.82;63.50
64833;HTU21D;51290;45.060;38.948;2023-05-23T10:00:18;23.73;63.67
64833;HTU21D;51290;45.060;38.948;2023-05-23T10:05:40;23.65;63.89
64833;HTU21D;51290;45.060;38.948;2023-05-23T10:08:53;23.67;63.95
64833;HTU21D;51290;45.060;38.948;2023-05-23T10:13:27;23.71;63.89
64833;HTU21D;51290;45.060;38.948;2023-05-23T10:15:59;23.76;63.94
64833;HTU21D;51290;45.060;38.948;2023-05-23T10:18:34;23.82;63.79
64833;HTU21D;51290;45.060;38.948;2023-05-23T10:21:10;23.84;63.52
64833;HTU21D;51290;45.060;38.948;2023-05-23T10:23:36;23.88;63.47
64833;HTU21D;51290;45.060;38.948;2023-05-23T10:26:04;23.94;63.40
64833;HTU21D;51290;45.060;38.948;2023-05-23T10:28:32;24.02;63.33
64833;HTU21D;51290;45.060;38.948;2023-05-23T10:30:58;24.11;63.23
64833;HTU21D;51290;45.060;38.948;2023-05-23T10:33:31;24.15;63.08
64833;HTU21D;51290;45.060;38.948;2023-05-23T10:36:08;24.15;63.08
64833;HTU21D;51290;45.060;38.948;2023-05-23T10:38:48;24.18;62.97
64833;HTU21D;51290;45.060;38.948;2023-05-23T10:41:22;24.18;62.86
64833;HTU21D;51290;45.060;38.948;2023-05-23T10:47:00;24.30;62.47
64833;HTU21D;51290;45.060;38.948;2023-05-23T10:49:50;24.31;62.08
64833;HTU21D;51290;45.060;38.948;2023-05-23T10:52:17;24.35;61.77
64833;HTU21D;51290;45.060;38.948;2023-05-23T10:54:43;24.39;61.63
64833;HTU21D;51290;45.060;38.948;2023-05-23T10:57:14;24.47;61.34
64833;HTU21D;51290;45.060;38.948;2023-05-23T10:59:41;24.48;61.21
64833;HTU21D;51290;45.060;38.948;2023-05-23T11:02:15;24.54;60.99
64833;HTU21D;51290;45.060;38.948;2023-05-23T11:04:42;24.58;60.92
64833;HTU21D;51290;45.060;38.948;2023-05-23T11:07:32;24.63;60.42
64833;HTU21D;51290;45.060;38.948;2023-05-23T11:10:12;24.66;60.39
64833;HTU21D;51290;45.060;38.948;2023-05-23T11:12:42;24.71;60.35
64833;HTU21D;51290;45.060;38.948;2023-05-23T11:15:19;24.77;60.20
64833;HTU21D;51290;45.060;38.948;2023-05-23T11:17:53;24.80;59.80
64833;HTU21D;51290;45.060;38.948;2023-05-23T11:20:21;24.82;59.71
64833;HTU21D;51290;45.060;38.948;2023-05-23T11:23:08;24.85;59.78
64833;HTU21D;51290;45.060;38.948;2023-05-23T11:28:11;24.93;59.51
64833;HTU21D;51290;45.060;38.948;2023-05-23T11:30:38;24.99;59.26
64833;HTU21D;51290;45.060;38.948;2023-05-23T11:33:07;25.06;59.09
64833;HTU21D;51290;45.060;38.948;2023-05-23T11:35:43;25.13;58.93
64833;HTU21D;51290;45.060;38.948;2023-05-23T11:38:09;25.18;58.58
64833;HTU21D;51290;45.060;38.948;2023-05-23T11:40:36;25.21;58.56
64833;HTU21D;51290;45.060;38.948;2023-05-23T11:43:06;25.29;58.25
64833;HTU21D;51290;45.060;38.948;2023-05-23T11:45:33;25.35;58.11
64833;HTU21D;51290;45.060;38.948;2023-05-23T11:48:09;25.40;57.74
64833;HTU21D;51290;45.060;38.948;2023-05-23T11:51:09;25.44;57.77
64833;HTU21D;51290;45.060;38.948;2023-05-23T11:53:28;25.48;57.59
64833;HTU21D;51290;45.060;38.948;2023-05-23T11:55:55;25.56;57.31
64833;HTU21D;51290;45.060;38.948;2023-05-23T11:58:26;25.57;56.63
64833;HTU21D;51290;45.060;38.948;2023-05-23T12:00:57;25.59;56.81
64833;HTU21D;51290;45.060;38.948;2023-05-23T12:03:22;25.61;56.42
64833;HTU21D;51290;45.060;38.948;2023-05-23T12:05:48;25.64;55.46
64833;HTU21D;51290;45.060;38.948;2023-05-23T12:08:14;25.65;55.80
64833;HTU21D;51290;45.060;38.948;2023-05-23T12:10:53;25.66;55.81
64833;HTU21D;51290;45.060;38.948;2023-05-23T12:13:24;25.69;55.65
64833;HTU21D;51290;45.060;38.948;2023-05-23T12:15:56;25.73;54.96
64833;HTU21D;51290;45.060;38.948;2023-05-23T12:18:24;25.78;54.78
64833;HTU21D;51290;45.060;38.948;2023-05-23T12:20:52;25.82;54.74
64833;HTU21D;51290;45.060;38.948;2023-05-23T12:23:20;25.84;54.04
64833;HTU21D;51290;45.060;38.948;2023-05-23T12:25:48;25.88;54.25
64833;HTU21D;51290;45.060;38.948;2023-05-23T12:28:14;25.94;54.35
64833;HTU21D;51290;45.060;38.948;2023-05-23T12:30:40;25.96;54.36
64833;HTU21D;51290;45.060;38.948;2023-05-23T12:33:07;26.02;54.23
64833;HTU21D;51290;45.060;38.948;2023-05-23T12:35:33;26.06;54.24
64833;HTU21D;51290;45.060;38.948;2023-05-23T12:37:58;26.10;53.85
64833;HTU21D;51290;45.060;38.948;2023-05-23T12:40:24;26.16;53.84
64833;HTU21D;51290;45.060;38.948;2023-05-23T12:45:31;26.26;53.60
64833;HTU21D;51290;45.060;38.948;2023-05-23T12:48:04;26.32;53.59
64833;HTU21D;51290;45.060;38.948;2023-05-23T12:50:31;26.40;53.57
64833;HTU21D;51290;45.060;38.948;2023-05-23T12:52:57;26.48;53.47
64833;HTU21D;51290;45.060;38.948;2023-05-23T12:55:23;26.52;53.35
64833;HTU21D;51290;45.060;38.948;2023-05-23T12:57:49;26.55;53.09
64833;HTU21D;51290;45.060;38.948;2023-05-23T13:00:15;26.54;53.01
64833;HTU21D;51290;45.060;38.948;2023-05-23T13:02:41;26.51;52.88
64833;HTU21D;51290;45.060;38.948;2023-05-23T13:05:08;26.48;52.94
64833;HTU21D;51290;45.060;38.948;2023-05-23T13:07:34;26.43;52.69
64833;HTU21D;51290;45.060;38.948;2023-05-23T13:10:00;26.38;52.67
64833;HTU21D;51290;45.060;38.948;2023-05-23T13:12:27;26.36;52.86
64833;HTU21D;51290;45.060;38.948;2023-05-23T13:14:53;26.42;53.04
64833;HTU21D;51290;45.060;38.948;2023-05-23T13:17:19;26.52;52.78
64833;HTU21D;51290;45.060;38.948;2023-05-23T13:19:45;26.55;52.64
64833;HTU21D;51290;45.060;38.948;2023-05-23T13:22:11;26.55;52.55
64833;HTU21D;51290;45.060;38.948;2023-05-23T13:24:38;26.51;52.46
64833;HTU21D;51290;45.060;38.948;2023-05-23T13:27:06;26.45;52.32
64833;HTU21D;51290;45.060;38.948;2023-05-23T13:29:32;26.40;52.00
64833;HTU21D;51290;45.060;38.948;2023-05-23T13:31:58;26.38;52.06
64833;HTU21D;51290;45.060;38.948;2023-05-23T13:34:25;26.35;51.43
64833;HTU21D;51290;45.060;38.948;2023-05-23T13:36:53;26.33;51.46
64833;HTU21D;51290;45.060;38.948;2023-05-23T13:39:19;26.34;51.50
64833;HTU21D;51290;45.060;38.948;2023-05-23T13:41:49;26.34;51.56
64833;HTU21D;51290;45.060;38.948;2023-05-23T13:44:15;26.37;51.71
64833;HTU21D;51290;45.060;38.948;2023-05-23T13:46:42;26.36;51.48
64833;HTU21D;51290;45.060;38.948;2023-05-23T13:49:08;26.34;51.27
64833;HTU21D;51290;45.060;38.948;2023-05-23T13:51:34;26.31;51.32
64833;HTU21D;51290;45.060;38.948;2023-05-23T13:54:03;26.27;51.38
64833;HTU21D;51290;45.060;38.948;2023-05-23T13:56:29;26.24;51.43
64833;HTU21D;51290;45.060;38.948;2023-05-23T13:58:55;26.23;50.94
64833;HTU21D;51290;45.060;38.948;2023-05-23T14:01:20;26.23;51.05
64833;HTU21D;51290;45.060;38.948;2023-05-23T14:03:46;26.22;50.89
64833;HTU21D;51290;45.060;38.948;2023-05-23T14:06:13;26.21;50.80
64833;HTU21D;51290;45.060;38.948;2023-05-23T14:08:39;26.22;50.56
64833;HTU21D;51290;45.060;38.948;2023-05-23T14:11:05;26.20;50.72
64833;HTU21D;51290;45.060;38.948;2023-05-23T14:13:31;26.22;51.03
64833;HTU21D;51290;45.060;38.948;2023-05-23T14:15:57;26.26;51.17
64833;HTU21D;51290;45.060;38.948;2023-05-23T14:18:23;26.32;51.27
64833;HTU21D;51290;45.060;38.948;2023-05-23T14:20:49;26.34;51.14
64833;HTU21D;51290;45.060;38.948;2023-05-23T14:23:15;26.33;51.01
64833;HTU21D;51290;45.060;38.948;2023-05-23T14:25:41;26.31;50.76
64833;HTU21D;51290;45.060;38.948;2023-05-23T14:28:08;26.28;50.88
64833;HTU21D;51290;45.060;38.948;2023-05-23T14:30:33;26.27;50.98
64833;HTU21D;51290;45.060;38.948;2023-05-23T14:32:59;26.25;50.98
64833;HTU21D;51290;45.060;38.948;2023-05-23T14:35:25;26.24;51.06
64833;HTU21D;51290;45.060;38.948;2023-05-23T14:37:54;26.23;51.25
64833;HTU21D;51290;45.060;38.948;2023-05-23T14:40:20;26.22;51.37
64833;HTU21D;51290;45.060;38.948;2023-05-23T14:42:46;26.22;51.40
64833;HTU21D;51290;45.060;38.948;2023-05-23T14:45:12;26.19;51.50
64833;HTU21D;51290;45.060;38.948;2023-05-23T14:47:37;26.17;51.37
64833;HTU21D;51290;45.060;38.948;2023-05-23T14:50:04;26.15;51.51
64833;HTU21D;51290;45.060;38.948;2023-05-23T14:52:30;26.12;51.59
64833;HTU21D;51290;45.060;38.948;2023-05-23T14:54:56;26.10;51.67
64833;HTU21D;51290;45.060;38.948;2023-05-23T14:57:22;26.08;51.59
64833;HTU21D;51290;45.060;38.948;2023-05-23T14:59:48;26.08;51.68
64833;HTU21D;51290;45.060;38.948;2023-05-23T15:02:14;26.05;51.50
64833;HTU21D;51290;45.060;38.948;2023-05-23T15:04:40;26.04;51.66
64833;HTU21D;51290;45.060;38.948;2023-05-23T15:07:07;26.03;51.61
64833;HTU21D;51290;45.060;38.948;2023-05-23T15:09:33;26.04;51.72
64833;HTU21D;51290;45.060;38.948;2023-05-23T15:11:59;26.05;51.71
64833;HTU21D;51290;45.060;38.948;2023-05-23T15:14:25;26.06;51.69
64833;HTU21D;51290;45.060;38.948;2023-05-23T15:16:54;26.06;51.69
64833;HTU21D;51290;45.060;38.948;2023-05-23T15:19:21;26.05;51.75
64833;HTU21D;51290;45.060;38.948;2023-05-23T15:21:47;26.03;51.67
64833;HTU21D;51290;45.060;38.948;2023-05-23T15:24:13;26.01;51.82
64833;HTU21D;51290;45.060;38.948;2023-05-23T15:26:39;25.98;51.91
64833;HTU21D;51290;45.060;38.948;2023-05-23T15:29:06;25.98;51.95
64833;HTU21D;51290;45.060;38.948;2023-05-23T15:31:32;25.97;51.98